sensor_id;sensor_type;location;lat;lon;timestamp;P1;durP1;ratioP1;P2;durP2;ratioP2
64075;SDS011;50327;51.328;12.324;2022-08-19T00:02:02;68.28;;;35.40;;
64075;SDS011;50327;51.328;12.324;2022-08-19T00:04:28;68.47;;;34.25;;
64075;SDS011;50327;51.328;12.324;2022-08-19T00:06:58;65.03;;;36.22;;
64075;SDS011;50327;51.328;12.324;2022-08-19T00:09:24;65.97;;;36.83;;
64075;SDS011;50327;51.328;12.324;2022-08-19T00:11:51;66.45;;;36.55;;
64075;SDS011;50327;51.328;12.324;2022-08-19T00:14:18;66.15;;;34.72;;
64075;SDS011;50327;51.328;12.324;2022-08-19T00:16:45;74.63;;;37.07;;
64075;SDS011;50327;51.328;12.324;2022-08-19T00:19:12;73.43;;;35.78;;
64075;SDS011;50327;51.328;12.324;2022-08-19T00:21:38;67.28;;;35.55;;
64075;SDS011;50327;51.328;12.324;2022-08-19T00:24:05;71.25;;;36.13;;
64075;SDS011;50327;51.328;12.324;2022-08-19T00:26:33;66.30;;;36.58;;
64075;SDS011;50327;51.328;12.324;2022-08-19T00:28:58;62.75;;;34.92;;
64075;SDS011;50327;51.328;12.324;2022-08-19T00:31:25;72.20;;;36.67;;
64075;SDS011;50327;51.328;12.324;2022-08-19T00:33:52;81.25;;;36.13;;
64075;SDS011;50327;51.328;12.324;2022-08-19T00:36:18;68.85;;;35.78;;
64075;SDS011;50327;51.328;12.324;2022-08-19T00:38:44;70.20;;;38.38;;
64075;SDS011;50327;51.328;12.324;2022-08-19T00:41:11;77.05;;;39.00;;
64075;SDS011;50327;51.328;12.324;2022-08-19T00:43:38;74.22;;;39.03;;
64075;SDS011;50327;51.328;12.324;2022-08-19T00:46:04;84.50;;;39.45;;
64075;SDS011;50327;51.328;12.324;2022-08-19T00:48:30;80.25;;;41.58;;
64075;SDS011;50327;51.328;12.324;2022-08-19T00:50:57;83.72;;;38.65;;
64075;SDS011;50327;51.328;12.324;2022-08-19T00:53:24;76.68;;;38.05;;
64075;SDS011;50327;51.328;12.324;2022-08-19T00:55:52;75.82;;;39.42;;
64075;SDS011;50327;51.328;12.324;2022-08-19T00:58:20;86.63;;;40.88;;
64075;SDS011;50327;51.328;12.324;2022-08-19T01:00:49;82.40;;;41.13;;
64075;SDS011;50327;51.328;12.324;2022-08-19T01:03:16;89.90;;;41.60;;
64075;SDS011;50327;51.328;12.324;2022-08-19T01:05:44;83.20;;;42.88;;
64075;SDS011;50327;51.328;12.324;2022-08-19T01:08:10;89.15;;;42.33;;
64075;SDS011;50327;51.328;12.324;2022-08-19T01:10:38;85.93;;;42.33;;
64075;SDS011;50327;51.328;12.324;2022-08-19T01:13:07;92.20;;;44.97;;
64075;SDS011;50327;51.328;12.324;2022-08-19T01:15:33;95.68;;;46.72;;
64075;SDS011;50327;51.328;12.324;2022-08-19T01:18:07;97.90;;;48.03;;
64075;SDS011;50327;51.328;12.324;2022-08-19T01:20:34;92.13;;;46.08;;
64075;SDS011;50327;51.328;12.324;2022-08-19T01:23:00;108.85;;;50.35;;
64075;SDS011;50327;51.328;12.324;2022-08-19T01:25:43;106.00;;;49.58;;
64075;SDS011;50327;51.328;12.324;2022-08-19T01:28:22;108.25;;;48.50;;
64075;SDS011;50327;51.328;12.324;2022-08-19T01:30:53;112.33;;;48.00;;
64075;SDS011;50327;51.328;12.324;2022-08-19T01:33:19;118.45;;;51.90;;
64075;SDS011;50327;51.328;12.324;2022-08-19T01:35:45;111.80;;;49.45;;
64075;SDS011;50327;51.328;12.324;2022-08-19T01:38:23;120.30;;;48.33;;
64075;SDS011;50327;51.328;12.324;2022-08-19T01:40:51;110.30;;;49.28;;
64075;SDS011;50327;51.328;12.324;2022-08-19T01:43:17;122.25;;;51.17;;
64075;SDS011;50327;51.328;12.324;2022-08-19T01:45:44;112.53;;;48.45;;
64075;SDS011;50327;51.328;12.324;2022-08-19T01:48:10;107.55;;;48.25;;
64075;SDS011;50327;51.328;12.324;2022-08-19T01:50:36;114.95;;;52.17;;
64075;SDS011;50327;51.328;12.324;2022-08-19T01:53:02;117.40;;;50.47;;
64075;SDS011;50327;51.328;12.324;2022-08-19T01:55:30;114.05;;;51.65;;
64075;SDS011;50327;51.328;12.324;2022-08-19T01:57:58;119.95;;;50.72;;
64075;SDS011;50327;51.328;12.324;2022-08-19T02:00:28;110.00;;;52.00;;
64075;SDS011;50327;51.328;12.324;2022-08-19T02:02:56;115.25;;;51.58;;
64075;SDS011;50327;51.328;12.324;2022-08-19T02:05:21;113.90;;;52.13;;
64075;SDS011;50327;51.328;12.324;2022-08-19T02:07:47;123.10;;;52.70;;
64075;SDS011;50327;51.328;12.324;2022-08-19T02:10:16;125.90;;;54.72;;
64075;SDS011;50327;51.328;12.324;2022-08-19T02:12:43;120.60;;;52.22;;
64075;SDS011;50327;51.328;12.324;2022-08-19T02:15:09;118.93;;;52.90;;
64075;SDS011;50327;51.328;12.324;2022-08-19T02:17:35;116.53;;;53.50;;
64075;SDS011;50327;51.328;12.324;2022-08-19T02:20:00;128.98;;;54.17;;
64075;SDS011;50327;51.328;12.324;2022-08-19T02:22:26;123.00;;;51.78;;
64075;SDS011;50327;51.328;12.324;2022-08-19T02:24:52;119.60;;;54.45;;
64075;SDS011;50327;51.328;12.324;2022-08-19T02:27:18;114.63;;;54.60;;
64075;SDS011;50327;51.328;12.324;2022-08-19T02:29:45;125.07;;;55.22;;
64075;SDS011;50327;51.328;12.324;2022-08-19T02:34:38;120.40;;;53.88;;
64075;SDS011;50327;51.328;12.324;2022-08-19T02:37:04;118.38;;;52.70;;
64075;SDS011;50327;51.328;12.324;2022-08-19T02:39:29;114.55;;;53.25;;
64075;SDS011;50327;51.328;12.324;2022-08-19T02:41:55;135.00;;;54.75;;
64075;SDS011;50327;51.328;12.324;2022-08-19T02:44:20;123.15;;;55.72;;
64075;SDS011;50327;51.328;12.324;2022-08-19T02:46:46;125.97;;;54.60;;
64075;SDS011;50327;51.328;12.324;2022-08-19T02:49:12;115.32;;;55.22;;
64075;SDS011;50327;51.328;12.324;2022-08-19T02:51:38;110.18;;;53.25;;
64075;SDS011;50327;51.328;12.324;2022-08-19T02:54:06;107.88;;;53.20;;
64075;SDS011;50327;51.328;12.324;2022-08-19T02:56:34;106.40;;;51.30;;
64075;SDS011;50327;51.328;12.324;2022-08-19T02:59:01;118.25;;;52.17;;
64075;SDS011;50327;51.328;12.324;2022-08-19T03:01:31;109.53;;;52.00;;
64075;SDS011;50327;51.328;12.324;2022-08-19T03:03:58;109.70;;;51.58;;
64075;SDS011;50327;51.328;12.324;2022-08-19T03:06:25;92.65;;;47.22;;
64075;SDS011;50327;51.328;12.324;2022-08-19T03:08:52;100.45;;;47.40;;
64075;SDS011;50327;51.328;12.324;2022-08-19T03:11:23;106.65;;;47.53;;
64075;SDS011;50327;51.328;12.324;2022-08-19T03:13:54;94.53;;;46.58;;
64075;SDS011;50327;51.328;12.324;2022-08-19T03:16:21;95.28;;;46.92;;
64075;SDS011;50327;51.328;12.324;2022-08-19T03:18:48;94.55;;;44.22;;
64075;SDS011;50327;51.328;12.324;2022-08-19T03:21:15;83.97;;;44.63;;
64075;SDS011;50327;51.328;12.324;2022-08-19T03:23:45;79.90;;;41.28;;
64075;SDS011;50327;51.328;12.324;2022-08-19T03:26:11;80.95;;;40.47;;
64075;SDS011;50327;51.328;12.324;2022-08-19T03:28:36;75.60;;;40.38;;
64075;SDS011;50327;51.328;12.324;2022-08-19T03:31:07;73.90;;;41.58;;
64075;SDS011;50327;51.328;12.324;2022-08-19T03:33:36;74.18;;;40.40;;
64075;SDS011;50327;51.328;12.324;2022-08-19T03:36:16;76.93;;;40.70;;
64075;SDS011;50327;51.328;12.324;2022-08-19T03:38:48;67.95;;;37.75;;
64075;SDS011;50327;51.328;12.324;2022-08-19T03:41:36;65.55;;;37.08;;
64075;SDS011;50327;51.328;12.324;2022-08-19T03:44:03;70.38;;;39.75;;
64075;SDS011;50327;51.328;12.324;2022-08-19T03:46:30;75.45;;;38.80;;
64075;SDS011;50327;51.328;12.324;2022-08-19T03:48:57;73.72;;;38.60;;
64075;SDS011;50327;51.328;12.324;2022-08-19T03:51:35;61.30;;;36.10;;
64075;SDS011;50327;51.328;12.324;2022-08-19T03:54:03;66.53;;;36.27;;
64075;SDS011;50327;51.328;12.324;2022-08-19T03:56:30;61.67;;;34.60;;
64075;SDS011;50327;51.328;12.324;2022-08-19T03:58:58;72.45;;;34.45;;
64075;SDS011;50327;51.328;12.324;2022-08-19T04:01:25;69.10;;;35.33;;
64075;SDS011;50327;51.328;12.324;2022-08-19T04:03:52;60.00;;;34.22;;
64075;SDS011;50327;51.328;12.324;2022-08-19T04:06:21;62.75;;;34.75;;
64075;SDS011;50327;51.328;12.324;2022-08-19T04:08:51;63.90;;;34.38;;
64075;SDS011;50327;51.328;12.324;2022-08-19T04:11:22;60.83;;;33.88;;
64075;SDS011;50327;51.328;12.324;2022-08-19T04:13:53;60.42;;;34.03;;
64075;SDS011;50327;51.328;12.324;2022-08-19T04:16:19;67.43;;;36.75;;
64075;SDS011;50327;51.328;12.324;2022-08-19T04:18:46;81.38;;;39.47;;
64075;SDS011;50327;51.328;12.324;2022-08-19T04:21:17;77.90;;;43.55;;
64075;SDS011;50327;51.328;12.324;2022-08-19T04:23:45;79.03;;;43.58;;
64075;SDS011;50327;51.328;12.324;2022-08-19T04:26:12;89.18;;;47.03;;
64075;SDS011;50327;51.328;12.324;2022-08-19T04:28:44;87.80;;;45.40;;
64075;SDS011;50327;51.328;12.324;2022-08-19T04:31:17;98.45;;;48.75;;
64075;SDS011;50327;51.328;12.324;2022-08-19T04:33:47;101.25;;;50.90;;
64075;SDS011;50327;51.328;12.324;2022-08-19T04:36:24;100.47;;;48.55;;
64075;SDS011;50327;51.328;12.324;2022-08-19T04:38:53;100.57;;;51.30;;
64075;SDS011;50327;51.328;12.324;2022-08-19T04:41:20;109.35;;;49.45;;
64075;SDS011;50327;51.328;12.324;2022-08-19T04:44:05;97.53;;;48.67;;
64075;SDS011;50327;51.328;12.324;2022-08-19T04:46:32;102.57;;;49.80;;
64075;SDS011;50327;51.328;12.324;2022-08-19T04:48:58;101.95;;;47.95;;
64075;SDS011;50327;51.328;12.324;2022-08-19T04:51:24;99.68;;;49.47;;
64075;SDS011;50327;51.328;12.324;2022-08-19T04:53:50;93.80;;;49.17;;
64075;SDS011;50327;51.328;12.324;2022-08-19T04:56:17;96.75;;;49.10;;
64075;SDS011;50327;51.328;12.324;2022-08-19T04:58:45;99.72;;;48.42;;
64075;SDS011;50327;51.328;12.324;2022-08-19T05:01:12;93.15;;;47.47;;
64075;SDS011;50327;51.328;12.324;2022-08-19T05:03:39;88.97;;;47.10;;
64075;SDS011;50327;51.328;12.324;2022-08-19T05:06:06;94.22;;;49.35;;
64075;SDS011;50327;51.328;12.324;2022-08-19T05:08:33;98.50;;;49.50;;
64075;SDS011;50327;51.328;12.324;2022-08-19T05:11:01;98.78;;;50.47;;
64075;SDS011;50327;51.328;12.324;2022-08-19T05:13:32;98.05;;;52.33;;
64075;SDS011;50327;51.328;12.324;2022-08-19T05:15:58;101.90;;;51.55;;
64075;SDS011;50327;51.328;12.324;2022-08-19T05:18:24;109.70;;;54.78;;
64075;SDS011;50327;51.328;12.324;2022-08-19T05:21:14;113.50;;;54.42;;
64075;SDS011;50327;51.328;12.324;2022-08-19T05:24:00;122.38;;;57.28;;
64075;SDS011;50327;51.328;12.324;2022-08-19T05:26:27;122.47;;;58.78;;
64075;SDS011;50327;51.328;12.324;2022-08-19T05:28:53;124.55;;;56.83;;
64075;SDS011;50327;51.328;12.324;2022-08-19T05:31:19;114.15;;;54.25;;
64075;SDS011;50327;51.328;12.324;2022-08-19T05:33:45;118.88;;;55.08;;
64075;SDS011;50327;51.328;12.324;2022-08-19T05:36:11;116.13;;;55.03;;
64075;SDS011;50327;51.328;12.324;2022-08-19T05:38:36;117.93;;;55.90;;
64075;SDS011;50327;51.328;12.324;2022-08-19T05:41:11;106.72;;;53.17;;
64075;SDS011;50327;51.328;12.324;2022-08-19T05:43:38;118.53;;;56.13;;
64075;SDS011;50327;51.328;12.324;2022-08-19T05:46:04;114.63;;;55.38;;
64075;SDS011;50327;51.328;12.324;2022-08-19T05:48:31;133.85;;;55.22;;
64075;SDS011;50327;51.328;12.324;2022-08-19T05:51:04;118.07;;;54.63;;
64075;SDS011;50327;51.328;12.324;2022-08-19T05:53:33;115.10;;;54.40;;
64075;SDS011;50327;51.328;12.324;2022-08-19T05:56:06;123.03;;;57.63;;
64075;SDS011;50327;51.328;12.324;2022-08-19T05:58:33;120.22;;;57.45;;
64075;SDS011;50327;51.328;12.324;2022-08-19T06:01:00;111.78;;;55.63;;
64075;SDS011;50327;51.328;12.324;2022-08-19T06:03:34;119.13;;;57.25;;
64075;SDS011;50327;51.328;12.324;2022-08-19T06:06:00;118.20;;;56.90;;
64075;SDS011;50327;51.328;12.324;2022-08-19T06:08:27;114.22;;;56.47;;
64075;SDS011;50327;51.328;12.324;2022-08-19T06:10:53;124.03;;;55.83;;
64075;SDS011;50327;51.328;12.324;2022-08-19T06:13:18;124.18;;;59.83;;
64075;SDS011;50327;51.328;12.324;2022-08-19T06:15:44;111.40;;;55.42;;
64075;SDS011;50327;51.328;12.324;2022-08-19T06:18:11;117.45;;;57.95;;
64075;SDS011;50327;51.328;12.324;2022-08-19T06:20:38;118.05;;;57.80;;
64075;SDS011;50327;51.328;12.324;2022-08-19T06:23:03;109.85;;;56.35;;
64075;SDS011;50327;51.328;12.324;2022-08-19T06:25:29;115.72;;;56.60;;
64075;SDS011;50327;51.328;12.324;2022-08-19T06:27:55;119.78;;;55.38;;
64075;SDS011;50327;51.328;12.324;2022-08-19T06:30:20;123.18;;;57.80;;
64075;SDS011;50327;51.328;12.324;2022-08-19T06:32:46;121.43;;;56.50;;
64075;SDS011;50327;51.328;12.324;2022-08-19T06:35:11;114.80;;;56.45;;
64075;SDS011;50327;51.328;12.324;2022-08-19T06:37:38;124.10;;;58.83;;
64075;SDS011;50327;51.328;12.324;2022-08-19T06:40:03;122.80;;;56.88;;
64075;SDS011;50327;51.328;12.324;2022-08-19T06:42:29;124.10;;;55.50;;
64075;SDS011;50327;51.328;12.324;2022-08-19T06:44:55;128.32;;;59.47;;
64075;SDS011;50327;51.328;12.324;2022-08-19T06:47:21;119.55;;;57.80;;
64075;SDS011;50327;51.328;12.324;2022-08-19T06:49:47;124.22;;;57.65;;
64075;SDS011;50327;51.328;12.324;2022-08-19T06:52:12;137.10;;;58.33;;
64075;SDS011;50327;51.328;12.324;2022-08-19T06:54:39;134.00;;;55.45;;
64075;SDS011;50327;51.328;12.324;2022-08-19T06:57:06;110.88;;;55.53;;
64075;SDS011;50327;51.328;12.324;2022-08-19T06:59:34;117.90;;;56.22;;
64075;SDS011;50327;51.328;12.324;2022-08-19T07:02:01;121.93;;;51.85;;
64075;SDS011;50327;51.328;12.324;2022-08-19T07:04:30;120.05;;;54.30;;
64075;SDS011;50327;51.328;12.324;2022-08-19T07:06:58;122.00;;;54.97;;
64075;SDS011;50327;51.328;12.324;2022-08-19T07:09:26;130.25;;;53.25;;
64075;SDS011;50327;51.328;12.324;2022-08-19T07:11:52;109.35;;;52.33;;
64075;SDS011;50327;51.328;12.324;2022-08-19T07:14:20;108.97;;;50.15;;
64075;SDS011;50327;51.328;12.324;2022-08-19T07:16:50;112.05;;;53.05;;
64075;SDS011;50327;51.328;12.324;2022-08-19T07:19:17;116.47;;;53.83;;
64075;SDS011;50327;51.328;12.324;2022-08-19T07:21:44;113.10;;;51.78;;
64075;SDS011;50327;51.328;12.324;2022-08-19T07:24:11;108.97;;;52.70;;
64075;SDS011;50327;51.328;12.324;2022-08-19T07:26:39;109.82;;;51.88;;
64075;SDS011;50327;51.328;12.324;2022-08-19T07:29:07;110.10;;;50.53;;
64075;SDS011;50327;51.328;12.324;2022-08-19T07:31:33;99.72;;;48.78;;
64075;SDS011;50327;51.328;12.324;2022-08-19T07:34:06;114.30;;;51.22;;
64075;SDS011;50327;51.328;12.324;2022-08-19T07:36:34;100.85;;;48.17;;
64075;SDS011;50327;51.328;12.324;2022-08-19T07:41:30;98.82;;;46.10;;
64075;SDS011;50327;51.328;12.324;2022-08-19T07:43:56;105.07;;;46.65;;
64075;SDS011;50327;51.328;12.324;2022-08-19T07:46:23;96.25;;;45.42;;
64075;SDS011;50327;51.328;12.324;2022-08-19T07:48:49;96.03;;;43.15;;
64075;SDS011;50327;51.328;12.324;2022-08-19T07:51:19;97.00;;;45.13;;
64075;SDS011;50327;51.328;12.324;2022-08-19T07:53:46;104.28;;;46.10;;
64075;SDS011;50327;51.328;12.324;2022-08-19T07:56:13;92.47;;;46.10;;
64075;SDS011;50327;51.328;12.324;2022-08-19T07:58:40;91.78;;;43.90;;
64075;SDS011;50327;51.328;12.324;2022-08-19T08:01:07;95.15;;;43.97;;
64075;SDS011;50327;51.328;12.324;2022-08-19T08:03:35;91.95;;;44.00;;
64075;SDS011;50327;51.328;12.324;2022-08-19T08:06:20;92.93;;;45.25;;
64075;SDS011;50327;51.328;12.324;2022-08-19T08:09:06;92.88;;;43.58;;
64075;SDS011;50327;51.328;12.324;2022-08-19T08:11:43;81.40;;;42.00;;
64075;SDS011;50327;51.328;12.324;2022-08-19T08:14:22;101.07;;;43.50;;
64075;SDS011;50327;51.328;12.324;2022-08-19T08:16:55;89.47;;;41.92;;
64075;SDS011;50327;51.328;12.324;2022-08-19T08:19:21;94.75;;;43.90;;
64075;SDS011;50327;51.328;12.324;2022-08-19T08:21:48;89.70;;;41.33;;
64075;SDS011;50327;51.328;12.324;2022-08-19T08:24:14;92.30;;;43.10;;
64075;SDS011;50327;51.328;12.324;2022-08-19T08:26:40;86.07;;;40.95;;
64075;SDS011;50327;51.328;12.324;2022-08-19T08:29:07;86.32;;;42.35;;
64075;SDS011;50327;51.328;12.324;2022-08-19T08:31:35;95.73;;;43.60;;
64075;SDS011;50327;51.328;12.324;2022-08-19T08:34:00;86.28;;;41.70;;
64075;SDS011;50327;51.328;12.324;2022-08-19T08:36:26;89.15;;;42.25;;
64075;SDS011;50327;51.328;12.324;2022-08-19T08:38:52;85.15;;;41.28;;
64075;SDS011;50327;51.328;12.324;2022-08-19T08:41:21;96.88;;;42.72;;
64075;SDS011;50327;51.328;12.324;2022-08-19T08:44:10;81.05;;;42.35;;
64075;SDS011;50327;51.328;12.324;2022-08-19T08:46:46;87.18;;;43.72;;
64075;SDS011;50327;51.328;12.324;2022-08-19T08:52:00;87.43;;;43.70;;
64075;SDS011;50327;51.328;12.324;2022-08-19T08:54:30;89.30;;;43.60;;
64075;SDS011;50327;51.328;12.324;2022-08-19T08:56:58;80.68;;;41.58;;
64075;SDS011;50327;51.328;12.324;2022-08-19T08:59:26;78.28;;;41.45;;
64075;SDS011;50327;51.328;12.324;2022-08-19T09:01:57;83.43;;;42.90;;
64075;SDS011;50327;51.328;12.324;2022-08-19T09:04:23;83.90;;;40.67;;
64075;SDS011;50327;51.328;12.324;2022-08-19T09:07:09;85.85;;;43.47;;
64075;SDS011;50327;51.328;12.324;2022-08-19T09:09:42;91.13;;;42.95;;
64075;SDS011;50327;51.328;12.324;2022-08-19T09:15:09;82.68;;;40.67;;
64075;SDS011;50327;51.328;12.324;2022-08-19T09:17:37;79.20;;;39.50;;
64075;SDS011;50327;51.328;12.324;2022-08-19T09:22:38;88.47;;;41.67;;
64075;SDS011;50327;51.328;12.324;2022-08-19T09:25:06;79.43;;;39.88;;
64075;SDS011;50327;51.328;12.324;2022-08-19T09:27:33;80.20;;;38.55;;
64075;SDS011;50327;51.328;12.324;2022-08-19T09:30:02;74.43;;;38.53;;
64075;SDS011;50327;51.328;12.324;2022-08-19T09:32:28;80.10;;;39.13;;
64075;SDS011;50327;51.328;12.324;2022-08-19T09:34:54;85.63;;;40.88;;
64075;SDS011;50327;51.328;12.324;2022-08-19T09:37:23;78.53;;;37.53;;
64075;SDS011;50327;51.328;12.324;2022-08-19T09:39:49;76.70;;;36.33;;
64075;SDS011;50327;51.328;12.324;2022-08-19T09:42:15;70.35;;;37.63;;
64075;SDS011;50327;51.328;12.324;2022-08-19T09:44:41;83.90;;;35.42;;
64075;SDS011;50327;51.328;12.324;2022-08-19T09:47:08;79.10;;;35.17;;
64075;SDS011;50327;51.328;12.324;2022-08-19T09:49:34;73.57;;;33.75;;
64075;SDS011;50327;51.328;12.324;2022-08-19T09:52:00;74.93;;;34.97;;
64075;SDS011;50327;51.328;12.324;2022-08-19T09:54:26;81.93;;;34.17;;
64075;SDS011;50327;51.328;12.324;2022-08-19T09:56:52;72.07;;;34.78;;
64075;SDS011;50327;51.328;12.324;2022-08-19T09:59:18;71.22;;;33.80;;
64075;SDS011;50327;51.328;12.324;2022-08-19T10:01:44;75.57;;;34.20;;
64075;SDS011;50327;51.328;12.324;2022-08-19T10:04:10;69.68;;;34.60;;
64075;SDS011;50327;51.328;12.324;2022-08-19T10:06:36;59.53;;;32.88;;
64075;SDS011;50327;51.328;12.324;2022-08-19T10:09:03;62.65;;;31.50;;
64075;SDS011;50327;51.328;12.324;2022-08-19T10:11:31;71.15;;;33.88;;
64075;SDS011;50327;51.328;12.324;2022-08-19T10:13:57;73.05;;;31.50;;
64075;SDS011;50327;51.328;12.324;2022-08-19T10:16:23;66.45;;;31.65;;
64075;SDS011;50327;51.328;12.324;2022-08-19T10:18:49;58.58;;;27.92;;
64075;SDS011;50327;51.328;12.324;2022-08-19T10:21:18;57.63;;;28.08;;
64075;SDS011;50327;51.328;12.324;2022-08-19T10:23:45;47.95;;;24.80;;
64075;SDS011;50327;51.328;12.324;2022-08-19T10:26:18;45.75;;;23.75;;
64075;SDS011;50327;51.328;12.324;2022-08-19T10:28:46;44.67;;;23.38;;
64075;SDS011;50327;51.328;12.324;2022-08-19T10:31:14;47.88;;;24.75;;
64075;SDS011;50327;51.328;12.324;2022-08-19T10:33:42;46.53;;;24.50;;
64075;SDS011;50327;51.328;12.324;2022-08-19T10:36:10;41.53;;;23.10;;
64075;SDS011;50327;51.328;12.324;2022-08-19T10:38:40;43.63;;;23.00;;
64075;SDS011;50327;51.328;12.324;2022-08-19T10:41:13;41.47;;;23.00;;
64075;SDS011;50327;51.328;12.324;2022-08-19T10:43:41;51.92;;;25.88;;
64075;SDS011;50327;51.328;12.324;2022-08-19T10:46:07;48.00;;;24.13;;
64075;SDS011;50327;51.328;12.324;2022-08-19T10:48:34;49.72;;;24.92;;
64075;SDS011;50327;51.328;12.324;2022-08-19T10:51:00;41.20;;;23.05;;
64075;SDS011;50327;51.328;12.324;2022-08-19T10:53:44;46.65;;;23.67;;
64075;SDS011;50327;51.328;12.324;2022-08-19T10:56:09;36.83;;;21.42;;
64075;SDS011;50327;51.328;12.324;2022-08-19T10:59:04;47.10;;;21.17;;
64075;SDS011;50327;51.328;12.324;2022-08-19T11:01:30;45.33;;;22.90;;
64075;SDS011;50327;51.328;12.324;2022-08-19T11:03:58;51.50;;;20.42;;
64075;SDS011;50327;51.328;12.324;2022-08-19T11:06:25;42.57;;;19.17;;
64075;SDS011;50327;51.328;12.324;2022-08-19T11:08:51;46.20;;;19.95;;
64075;SDS011;50327;51.328;12.324;2022-08-19T11:11:18;47.00;;;21.35;;
64075;SDS011;50327;51.328;12.324;2022-08-19T11:13:43;49.15;;;21.73;;
64075;SDS011;50327;51.328;12.324;2022-08-19T11:16:14;41.00;;;19.42;;
64075;SDS011;50327;51.328;12.324;2022-08-19T11:18:48;43.78;;;19.63;;
64075;SDS011;50327;51.328;12.324;2022-08-19T11:21:20;35.80;;;18.75;;
64075;SDS011;50327;51.328;12.324;2022-08-19T11:23:48;37.90;;;18.27;;
64075;SDS011;50327;51.328;12.324;2022-08-19T11:26:17;37.90;;;19.05;;
64075;SDS011;50327;51.328;12.324;2022-08-19T11:28:44;33.00;;;18.52;;
64075;SDS011;50327;51.328;12.324;2022-08-19T11:31:11;36.83;;;17.95;;
64075;SDS011;50327;51.328;12.324;2022-08-19T11:33:38;43.88;;;19.13;;
64075;SDS011;50327;51.328;12.324;2022-08-19T11:36:04;32.67;;;17.50;;
64075;SDS011;50327;51.328;12.324;2022-08-19T11:38:30;40.28;;;19.17;;
64075;SDS011;50327;51.328;12.324;2022-08-19T11:40:59;33.72;;;17.00;;
64075;SDS011;50327;51.328;12.324;2022-08-19T11:43:26;30.92;;;17.88;;
64075;SDS011;50327;51.328;12.324;2022-08-19T11:45:53;37.92;;;18.05;;
64075;SDS011;50327;51.328;12.324;2022-08-19T11:48:19;33.17;;;16.20;;
64075;SDS011;50327;51.328;12.324;2022-08-19T11:50:47;31.63;;;17.00;;
64075;SDS011;50327;51.328;12.324;2022-08-19T11:53:17;31.48;;;17.17;;
64075;SDS011;50327;51.328;12.324;2022-08-19T11:55:43;36.47;;;17.05;;
64075;SDS011;50327;51.328;12.324;2022-08-19T11:58:10;29.70;;;16.83;;
64075;SDS011;50327;51.328;12.324;2022-08-19T12:00:37;31.15;;;16.77;;
64075;SDS011;50327;51.328;12.324;2022-08-19T12:03:03;31.42;;;16.40;;
64075;SDS011;50327;51.328;12.324;2022-08-19T12:05:28;35.17;;;16.40;;
64075;SDS011;50327;51.328;12.324;2022-08-19T12:07:54;31.65;;;16.15;;
64075;SDS011;50327;51.328;12.324;2022-08-19T12:10:20;36.42;;;17.00;;
64075;SDS011;50327;51.328;12.324;2022-08-19T12:12:45;26.33;;;15.60;;
64075;SDS011;50327;51.328;12.324;2022-08-19T12:15:11;28.40;;;15.52;;
64075;SDS011;50327;51.328;12.324;2022-08-19T12:17:39;34.17;;;14.02;;
64075;SDS011;50327;51.328;12.324;2022-08-19T12:20:05;29.42;;;13.85;;
64075;SDS011;50327;51.328;12.324;2022-08-19T12:22:33;22.48;;;13.25;;
64075;SDS011;50327;51.328;12.324;2022-08-19T12:24:59;25.85;;;15.05;;
64075;SDS011;50327;51.328;12.324;2022-08-19T12:27:25;21.25;;;13.65;;
64075;SDS011;50327;51.328;12.324;2022-08-19T12:29:51;26.98;;;14.35;;
64075;SDS011;50327;51.328;12.324;2022-08-19T12:32:16;27.25;;;14.32;;
64075;SDS011;50327;51.328;12.324;2022-08-19T12:34:42;25.15;;;13.95;;
64075;SDS011;50327;51.328;12.324;2022-08-19T12:37:07;25.13;;;14.48;;
64075;SDS011;50327;51.328;12.324;2022-08-19T12:39:37;29.40;;;16.67;;
64075;SDS011;50327;51.328;12.324;2022-08-19T12:42:07;37.40;;;17.50;;
64075;SDS011;50327;51.328;12.324;2022-08-19T12:44:34;29.42;;;16.38;;
64075;SDS011;50327;51.328;12.324;2022-08-19T12:47:01;27.92;;;17.15;;
64075;SDS011;50327;51.328;12.324;2022-08-19T12:49:28;32.67;;;18.50;;
64075;SDS011;50327;51.328;12.324;2022-08-19T12:51:54;34.08;;;18.95;;
64075;SDS011;50327;51.328;12.324;2022-08-19T12:54:20;45.70;;;19.38;;
64075;SDS011;50327;51.328;12.324;2022-08-19T12:56:45;31.50;;;17.90;;
64075;SDS011;50327;51.328;12.324;2022-08-19T12:59:11;29.23;;;15.60;;
64075;SDS011;50327;51.328;12.324;2022-08-19T13:01:36;30.50;;;17.17;;
64075;SDS011;50327;51.328;12.324;2022-08-19T13:04:03;36.20;;;18.52;;
64075;SDS011;50327;51.328;12.324;2022-08-19T13:06:29;40.50;;;22.30;;
64075;SDS011;50327;51.328;12.324;2022-08-19T13:08:55;35.05;;;17.70;;
64075;SDS011;50327;51.328;12.324;2022-08-19T13:11:20;31.52;;;18.40;;
64075;SDS011;50327;51.328;12.324;2022-08-19T13:16:16;29.77;;;17.33;;
64075;SDS011;50327;51.328;12.324;2022-08-19T13:18:44;31.17;;;17.40;;
64075;SDS011;50327;51.328;12.324;2022-08-19T13:21:16;32.95;;;17.52;;
64075;SDS011;50327;51.328;12.324;2022-08-19T13:23:41;32.33;;;17.67;;
64075;SDS011;50327;51.328;12.324;2022-08-19T13:26:07;31.60;;;18.70;;
64075;SDS011;50327;51.328;12.324;2022-08-19T13:28:34;30.15;;;17.80;;
64075;SDS011;50327;51.328;12.324;2022-08-19T13:31:19;31.08;;;17.80;;
64075;SDS011;50327;51.328;12.324;2022-08-19T13:34:04;31.42;;;17.95;;
64075;SDS011;50327;51.328;12.324;2022-08-19T13:36:31;26.50;;;16.90;;
64075;SDS011;50327;51.328;12.324;2022-08-19T13:38:57;35.00;;;18.45;;
64075;SDS011;50327;51.328;12.324;2022-08-19T13:41:23;32.20;;;18.00;;
64075;SDS011;50327;51.328;12.324;2022-08-19T13:43:48;36.58;;;20.42;;
64075;SDS011;50327;51.328;12.324;2022-08-19T13:46:14;34.70;;;18.73;;
64075;SDS011;50327;51.328;12.324;2022-08-19T13:48:40;33.70;;;18.55;;
64075;SDS011;50327;51.328;12.324;2022-08-19T13:51:07;35.50;;;17.80;;
64075;SDS011;50327;51.328;12.324;2022-08-19T13:53:37;31.15;;;17.90;;
64075;SDS011;50327;51.328;12.324;2022-08-19T13:56:05;32.45;;;19.92;;
64075;SDS011;50327;51.328;12.324;2022-08-19T13:58:31;31.58;;;17.63;;
64075;SDS011;50327;51.328;12.324;2022-08-19T14:00:57;37.72;;;22.15;;
64075;SDS011;50327;51.328;12.324;2022-08-19T14:03:24;27.38;;;16.23;;
64075;SDS011;50327;51.328;12.324;2022-08-19T14:05:49;28.75;;;16.55;;
64075;SDS011;50327;51.328;12.324;2022-08-19T14:08:15;29.77;;;16.38;;
64075;SDS011;50327;51.328;12.324;2022-08-19T14:10:41;30.38;;;16.95;;
64075;SDS011;50327;51.328;12.324;2022-08-19T14:13:08;32.78;;;16.77;;
64075;SDS011;50327;51.328;12.324;2022-08-19T14:15:34;30.17;;;16.80;;
64075;SDS011;50327;51.328;12.324;2022-08-19T14:17:59;31.20;;;16.02;;
64075;SDS011;50327;51.328;12.324;2022-08-19T14:20:25;27.92;;;15.75;;
64075;SDS011;50327;51.328;12.324;2022-08-19T14:22:50;33.47;;;15.82;;
64075;SDS011;50327;51.328;12.324;2022-08-19T14:25:18;31.98;;;17.85;;
64075;SDS011;50327;51.328;12.324;2022-08-19T14:27:46;26.85;;;15.68;;